createdAt,value
2023-05-04T04:01:13.041Z,10.70
2023-05-04T04:03:41.102Z,10.70
2023-05-04T04:06:10.458Z,10.60
2023-05-04T04:08:38.535Z,10.50
2023-05-04T04:11:06.499Z,10.50
2023-05-04T04:13:34.280Z,10.50
2023-05-04T04:16:02.140Z,10.50
2023-05-04T04:18:31.555Z,10.50
2023-05-04T04:20:59.594Z,10.50
2023-05-04T04:23:27.430Z,10.60
2023-05-04T04:25:55.193Z,10.60
2023-05-04T04:28:23.022Z,10.60
2023-05-04T04:30:50.822Z,10.60
2023-05-04T04:33:18.604Z,10.70
2023-05-04T04:35:48.165Z,10.70
2023-05-04T04:38:16.017Z,10.70
2023-05-04T04:40:43.858Z,10.70
2023-05-04T04:43:11.952Z,10.70
2023-05-04T04:45:41.152Z,10.70
2023-05-04T04:48:09.269Z,10.70
2023-05-04T04:50:40.005Z,10.80
2023-05-04T04:53:09.789Z,10.80
2023-05-04T04:55:37.752Z,10.90
2023-05-04T04:58:05.919Z,10.90
2023-05-04T05:00:33.816Z,10.80
2023-05-04T05:03:01.937Z,10.80
2023-05-04T05:05:31.541Z,10.80
2023-05-04T05:07:59.758Z,10.80
2023-05-04T05:10:29.170Z,10.80
2023-05-04T05:12:57.065Z,10.80
2023-05-04T05:15:24.882Z,10.90
2023-05-04T05:17:52.754Z,10.90
2023-05-04T05:20:21.307Z,10.90
2023-05-04T05:22:49.173Z,10.90
2023-05-04T05:25:17.120Z,11.00
2023-05-04T05:27:46.690Z,11.00
2023-05-04T05:30:14.790Z,11.00
2023-05-04T05:32:42.917Z,10.90
2023-05-04T05:35:12.372Z,11.10
2023-05-04T05:37:40.190Z,11.10
2023-05-04T05:40:09.547Z,11.10
2023-05-04T05:42:37.340Z,11.00
2023-05-04T05:45:07.994Z,11.10
2023-05-04T05:47:36.704Z,11.20
2023-05-04T05:50:04.951Z,11.20
2023-05-04T05:52:33.069Z,11.20
2023-05-04T05:55:02.683Z,11.20
2023-05-04T05:57:30.859Z,11.30
2023-05-04T05:59:58.909Z,11.30
2023-05-04T06:02:28.300Z,11.40
2023-05-04T06:07:24.620Z,11.50
2023-05-04T06:09:53.514Z,11.50
2023-05-04T06:12:21.401Z,11.60
2023-05-04T06:14:49.375Z,11.60
2023-05-04T06:17:17.437Z,11.60
2023-05-04T06:19:49.529Z,11.70
2023-05-04T06:22:18.790Z,11.70
2023-05-04T06:24:46.751Z,11.80
2023-05-04T06:27:14.570Z,11.90
2023-05-04T06:29:42.529Z,11.90
2023-05-04T06:32:14.235Z,12.00
2023-05-04T06:34:43.030Z,12.10
2023-05-04T06:37:14.127Z,12.10
2023-05-04T06:39:43.887Z,12.30
2023-05-04T06:42:12.196Z,12.40
2023-05-04T06:44:40.114Z,12.40
2023-05-04T06:47:08.059Z,12.40
2023-05-04T06:49:36.387Z,12.50
2023-05-04T06:52:04.277Z,12.50
2023-05-04T06:54:33.531Z,12.60
2023-05-04T06:57:04.321Z,12.60
2023-05-04T06:59:32.095Z,12.70
2023-05-04T07:02:00.006Z,12.80
2023-05-04T07:04:28.111Z,12.90
2023-05-04T07:06:55.991Z,13.00
2023-05-04T07:09:23.817Z,13.00
2023-05-04T07:11:52.935Z,13.00
2023-05-04T07:14:21.786Z,13.00
2023-05-04T07:16:49.668Z,13.10
2023-05-04T07:19:17.584Z,13.10
2023-05-04T07:21:45.378Z,13.10
2023-05-04T07:24:13.202Z,13.20
2023-05-04T07:26:40.974Z,13.20
2023-05-04T07:29:11.877Z,13.30
2023-05-04T07:31:40.034Z,13.30
2023-05-04T07:34:07.823Z,13.40
2023-05-04T07:36:36.262Z,13.40
2023-05-04T07:39:04.220Z,13.40
2023-05-04T07:41:32.976Z,13.30
2023-05-04T07:44:20.235Z,13.50
2023-05-04T07:59:36.117Z,14.10
2023-05-04T08:04:52.716Z,14.20
2023-05-04T08:15:07.605Z,14.50
2023-05-04T08:17:37.314Z,14.50
2023-05-04T08:20:05.774Z,14.60
2023-05-04T08:22:34.165Z,14.70
2023-05-04T08:25:03.042Z,14.80
2023-05-04T08:27:33.771Z,14.90
2023-05-04T08:30:02.479Z,14.90
2023-05-04T08:32:33.301Z,15.00
2023-05-04T08:35:01.194Z,15.10
2023-05-04T08:37:29.092Z,15.20
2023-05-04T08:39:57.017Z,15.50
2023-05-04T08:42:29.412Z,15.50
2023-05-04T08:44:58.275Z,15.70
2023-05-04T08:49:59.119Z,15.90
2023-05-04T08:52:27.534Z,16.00
2023-05-04T08:54:56.794Z,16.10
2023-05-04T08:57:26.279Z,16.10
2023-05-04T08:59:59.230Z,16.30
2023-05-04T09:02:29.224Z,16.40
2023-05-04T09:05:00.331Z,16.50
2023-05-04T09:09:58.997Z,16.70
2023-05-04T09:12:28.068Z,16.70
2023-05-04T09:14:55.914Z,16.80
2023-05-04T09:17:26.394Z,16.80
2023-05-04T09:20:01.487Z,16.70
2023-05-04T09:22:31.262Z,16.80
2023-05-04T09:25:10.250Z,17.00
2023-05-04T09:27:38.261Z,17.10
2023-05-04T09:30:07.243Z,17.20
2023-05-04T09:32:38.398Z,17.20
2023-05-04T09:35:07.924Z,17.20
2023-05-04T09:37:44.336Z,17.30
2023-05-04T09:40:13.386Z,17.30
2023-05-04T09:42:41.376Z,17.40
2023-05-04T09:45:10.908Z,17.50
2023-05-04T09:47:39.981Z,17.50
2023-05-04T09:50:16.990Z,17.60
2023-05-04T09:52:49.192Z,17.80
2023-05-04T09:55:19.308Z,17.80
2023-05-04T09:57:48.091Z,18.00
2023-05-04T10:00:17.609Z,18.00
2023-05-04T10:02:46.587Z,18.10
2023-05-04T10:05:18.144Z,18.20
2023-05-04T10:07:46.465Z,18.20
2023-05-04T10:10:16.797Z,18.30
2023-05-04T10:15:17.368Z,18.40
2023-05-04T10:17:59.050Z,18.60
2023-05-04T10:20:46.023Z,18.70
2023-05-04T10:23:46.890Z,18.70
2023-05-04T10:26:39.210Z,18.90
2023-05-04T10:29:14.444Z,19.00
2023-05-04T10:31:43.425Z,19.00
2023-05-04T10:34:11.844Z,19.30
2023-05-04T10:36:40.583Z,19.30
2023-05-04T10:39:20.179Z,19.40
2023-05-04T10:42:00.170Z,19.50
2023-05-04T10:44:29.007Z,19.50
2023-05-04T10:47:04.226Z,19.50
2023-05-04T10:49:32.726Z,19.50
2023-05-04T10:52:11.795Z,19.60
2023-05-04T10:54:40.921Z,19.60
2023-05-04T10:57:11.003Z,19.60
2023-05-04T10:59:39.476Z,19.80
2023-05-04T11:02:09.218Z,19.90
2023-05-04T11:07:08.327Z,20.10
2023-05-04T11:09:38.004Z,20.00
2023-05-04T11:12:06.424Z,20.10
2023-05-04T11:14:37.857Z,20.10
2023-05-04T11:17:23.909Z,20.20
2023-05-04T11:19:55.641Z,20.30
2023-05-04T11:22:23.488Z,20.40
2023-05-04T11:24:51.316Z,20.30
2023-05-04T11:27:23.686Z,20.30
2023-05-04T11:29:58.868Z,20.30
2023-05-04T11:32:37.160Z,20.50
2023-05-04T11:35:06.594Z,20.60
2023-05-04T11:37:40.315Z,20.60
2023-05-04T11:40:13.401Z,20.80
2023-05-04T11:42:42.688Z,20.80
2023-05-04T11:45:15.711Z,20.70
2023-05-04T11:47:44.531Z,20.70
2023-05-04T11:50:14.000Z,20.80
2023-05-04T11:52:42.433Z,20.80
2023-05-04T11:55:11.660Z,20.90
2023-05-04T11:57:40.265Z,20.90
2023-05-04T12:00:09.874Z,21.10
2023-05-04T12:02:39.347Z,21.20
2023-05-04T12:05:14.144Z,21.40
2023-05-04T12:07:42.110Z,21.50
2023-05-04T12:10:10.487Z,21.50
2023-05-04T12:12:38.282Z,21.50
2023-05-04T12:15:06.981Z,21.60
2023-05-04T12:17:43.554Z,21.70
2023-05-04T12:20:12.345Z,21.80
2023-05-04T12:22:40.610Z,21.80
2023-05-04T12:25:11.141Z,21.90
2023-05-04T12:27:42.618Z,21.90
2023-05-04T12:30:11.772Z,21.90
2023-05-04T12:32:39.768Z,21.90
2023-05-04T12:35:09.931Z,22.00
2023-05-04T12:37:37.942Z,22.00
2023-05-04T12:40:21.213Z,22.00
2023-05-04T12:43:05.534Z,22.00
2023-05-04T12:45:33.668Z,22.10
2023-05-04T12:48:01.604Z,22.10
2023-05-04T12:50:30.800Z,22.00
2023-05-04T12:53:04.010Z,22.10
2023-05-04T12:55:32.253Z,22.20
2023-05-04T12:58:00.058Z,22.30
2023-05-04T13:00:27.970Z,22.40
2023-05-04T13:02:55.769Z,22.30
2023-05-04T13:05:23.750Z,22.40
2023-05-04T13:07:53.144Z,22.40
2023-05-04T13:10:21.415Z,22.50
2023-05-04T13:12:49.666Z,22.60
2023-05-04T13:15:17.647Z,22.60
2023-05-04T13:17:45.431Z,22.70
2023-05-04T13:20:14.155Z,22.80
2023-05-04T13:22:42.324Z,22.90
2023-05-04T13:25:11.674Z,22.90
2023-05-04T13:27:39.439Z,22.80
2023-05-04T13:30:08.949Z,22.80
2023-05-04T13:32:36.764Z,22.70
2023-05-04T13:35:05.144Z,22.80
2023-05-04T13:37:33.832Z,22.80
2023-05-04T13:40:01.810Z,22.90
2023-05-04T13:42:31.020Z,22.90
2023-05-04T13:44:58.809Z,23.00
2023-05-04T13:49:55.136Z,23.10
2023-05-04T13:52:23.021Z,23.00
2023-05-04T13:54:50.800Z,23.10
2023-05-04T13:57:18.552Z,23.10
2023-05-04T14:02:33.866Z,23.30
2023-05-04T14:05:02.687Z,23.30
2023-05-04T14:07:30.974Z,23.30
2023-05-04T14:10:00.217Z,23.30
2023-05-04T14:12:28.802Z,23.30
2023-05-04T14:14:59.066Z,23.30
2023-05-04T14:17:27.997Z,23.40
2023-05-04T14:22:24.376Z,23.30
2023-05-04T14:24:52.286Z,23.40
2023-05-04T14:27:21.003Z,23.50
2023-05-04T14:29:49.049Z,23.50
2023-05-04T14:32:19.447Z,23.60
2023-05-04T14:34:47.679Z,23.60
2023-05-04T14:37:15.600Z,23.80
2023-05-04T14:39:44.583Z,23.90
2023-05-04T14:42:12.533Z,24.10
2023-05-04T14:44:40.350Z,24.10
2023-05-04T14:47:08.280Z,24.10
2023-05-04T14:49:43.019Z,24.20
2023-05-04T14:52:11.187Z,24.30
2023-05-04T14:54:39.091Z,24.30
2023-05-04T14:57:09.149Z,24.30
2023-05-04T14:59:37.839Z,24.40
2023-05-04T15:02:08.253Z,24.40
2023-05-04T15:09:34.960Z,24.50
2023-05-04T15:12:04.778Z,24.60
2023-05-04T15:14:32.925Z,24.70
2023-05-04T15:17:02.271Z,24.80
2023-05-04T15:19:30.100Z,24.80
2023-05-04T15:21:59.332Z,24.80
2023-05-04T15:24:27.606Z,25.00
2023-05-04T15:26:55.453Z,25.00
2023-05-04T15:29:23.664Z,25.10
2023-05-04T15:31:51.829Z,25.20
2023-05-04T15:34:19.728Z,25.20
2023-05-04T15:36:47.720Z,25.20
2023-05-04T15:39:17.125Z,25.10
2023-05-04T15:41:44.914Z,25.10
2023-05-04T15:44:12.767Z,25.10
2023-05-04T15:46:41.588Z,25.10
2023-05-04T15:49:09.537Z,25.30
2023-05-04T15:51:37.407Z,25.60
2023-05-04T15:54:05.543Z,25.80
2023-05-04T15:56:35.390Z,25.70
2023-05-04T15:59:03.395Z,25.70
2023-05-04T16:01:32.120Z,26.00
2023-05-04T16:04:00.523Z,25.90
2023-05-04T16:06:28.497Z,25.90
2023-05-04T16:08:58.612Z,26.00
2023-05-04T16:11:26.488Z,26.10
2023-05-04T16:13:55.729Z,26.40
2023-05-04T16:16:25.332Z,26.40
2023-05-04T16:18:53.809Z,26.40
2023-05-04T16:21:21.581Z,26.50
2023-05-04T16:23:49.448Z,26.70
2023-05-04T16:26:20.799Z,26.90
2023-05-04T16:28:56.649Z,27.10
2023-05-04T16:31:24.618Z,27.10
2023-05-04T16:33:53.270Z,27.20
2023-05-04T16:36:21.405Z,27.10
2023-05-04T16:38:49.827Z,27.00
2023-05-04T16:41:19.102Z,27.30
2023-05-04T16:43:48.909Z,27.40
2023-05-04T16:46:18.305Z,27.30
2023-05-04T16:48:46.154Z,27.30
2023-05-04T16:51:13.985Z,27.20
2023-05-04T16:58:53.227Z,27.50
2023-05-04T17:03:51.676Z,27.20
2023-05-04T17:06:19.671Z,27.00
2023-05-04T17:08:47.558Z,26.90
2023-05-04T17:13:52.076Z,27.00
2023-05-04T17:16:20.113Z,27.00
2023-05-04T17:18:49.260Z,27.00
2023-05-04T17:21:18.256Z,27.00
2023-05-04T17:23:46.086Z,26.90
2023-05-04T17:26:14.033Z,26.90
2023-05-04T17:28:42.021Z,26.90
2023-05-04T17:33:40.734Z,27.00
2023-05-04T17:36:12.061Z,27.30
2023-05-04T17:41:09.721Z,27.40
2023-05-04T17:43:37.921Z,27.20
2023-05-04T17:46:05.851Z,27.00
2023-05-04T17:48:33.675Z,23.30
2023-05-04T17:51:01.427Z,26.80
2023-05-04T17:53:30.912Z,26.70
2023-05-04T17:55:58.729Z,26.90
2023-05-04T18:03:22.838Z,27.10
2023-05-04T18:05:50.690Z,27.20
2023-05-04T18:08:18.455Z,27.30
2023-05-04T18:10:48.533Z,27.20
2023-05-04T18:13:16.434Z,27.10
2023-05-04T18:18:12.531Z,26.60
2023-05-04T18:20:40.350Z,26.30
2023-05-04T18:25:38.017Z,25.70
2023-05-04T18:28:07.565Z,25.50
2023-05-04T18:30:35.936Z,25.40
2023-05-04T18:35:32.057Z,25.00
2023-05-04T18:45:26.095Z,24.00
2023-05-04T18:57:46.994Z,23.40
2023-05-04T19:12:39.621Z,23.00
2023-05-04T19:15:08.542Z,22.90
2023-05-04T19:17:36.313Z,22.80
2023-05-04T19:20:06.448Z,22.80
2023-05-04T19:22:34.439Z,22.70
2023-05-04T19:25:03.943Z,22.60
2023-05-04T19:29:59.925Z,22.40
2023-05-04T19:34:56.396Z,22.20
2023-05-04T19:37:25.651Z,22.00
2023-05-04T19:42:22.482Z,21.70
2023-05-04T19:44:50.350Z,21.50
2023-05-04T19:47:18.282Z,21.40
2023-05-04T19:49:48.017Z,21.30
2023-05-04T19:52:16.104Z,21.30
2023-05-04T19:54:48.202Z,21.20
2023-05-04T19:57:16.082Z,18.30
2023-05-04T20:02:14.970Z,20.90
2023-05-04T20:04:42.983Z,20.90
2023-05-04T20:09:38.998Z,20.70
2023-05-04T20:12:08.140Z,20.70
2023-05-04T20:14:36.583Z,20.60
2023-05-04T20:17:04.654Z,20.70
2023-05-04T20:19:32.441Z,20.60
2023-05-04T20:22:00.267Z,20.50
2023-05-04T20:29:25.595Z,20.30
2023-05-04T20:31:53.549Z,20.20
2023-05-04T20:34:21.384Z,20.10
2023-05-04T20:36:49.723Z,20.10
2023-05-04T20:39:17.987Z,20.10
2023-05-04T20:44:13.886Z,20.00
2023-05-04T20:46:43.662Z,19.90
2023-05-04T20:49:11.482Z,19.90
2023-05-04T20:51:39.436Z,19.80
2023-05-04T20:54:07.342Z,19.80
2023-05-04T20:56:35.104Z,19.70
2023-05-04T20:59:02.916Z,19.70
2023-05-04T21:01:30.761Z,19.70
2023-05-04T21:04:00.120Z,19.60
2023-05-04T21:06:28.024Z,19.70
2023-05-04T21:08:56.859Z,19.70
2023-05-04T21:11:24.569Z,19.60
2023-05-04T21:13:52.308Z,19.60
2023-05-04T21:16:20.370Z,19.60
2023-05-04T21:18:48.409Z,19.60
2023-05-04T21:21:17.496Z,19.50
2023-05-04T21:23:45.360Z,19.50
2023-05-04T21:26:13.212Z,19.40
2023-05-04T21:28:41.051Z,19.40
2023-05-04T21:31:09.246Z,19.30
2023-05-04T21:33:37.236Z,19.30
2023-05-04T21:36:12.572Z,19.30
2023-05-04T21:38:41.780Z,19.30
2023-05-04T21:41:13.669Z,19.20
2023-05-04T21:46:11.503Z,19.30
2023-05-04T21:48:39.690Z,19.30
2023-05-04T21:51:07.610Z,19.30
2023-05-04T21:53:35.518Z,19.30
2023-05-04T21:56:08.166Z,19.30
2023-05-04T21:58:37.090Z,19.30
2023-05-04T22:01:05.629Z,19.40
2023-05-04T22:03:33.624Z,19.40
2023-05-04T22:06:01.859Z,19.40
2023-05-04T22:08:30.487Z,19.30
2023-05-04T22:10:59.015Z,19.20
2023-05-04T22:13:28.257Z,19.10
2023-05-04T22:15:56.061Z,19.10
2023-05-04T22:18:23.912Z,19.00
2023-05-04T22:20:51.879Z,19.00
2023-05-04T22:23:19.875Z,18.90
2023-05-04T22:28:16.131Z,19.00
2023-05-04T22:30:45.387Z,18.90
2023-05-04T22:38:09.501Z,18.60
2023-05-04T22:40:40.400Z,18.70
2023-05-04T22:43:08.448Z,18.70
2023-05-04T22:45:36.594Z,18.80
2023-05-04T22:48:05.751Z,18.80
2023-05-04T22:50:34.178Z,18.90
2023-05-04T22:53:02.148Z,18.70
2023-05-04T22:55:30.192Z,18.70
2023-05-04T22:58:00.326Z,18.70
2023-05-04T23:00:28.140Z,18.70
2023-05-04T23:02:56.634Z,18.70
2023-05-04T23:05:25.949Z,18.70
2023-05-04T23:07:53.819Z,18.70
2023-05-04T23:10:21.892Z,18.70
2023-05-04T23:12:49.819Z,18.70
2023-05-04T23:15:18.156Z,18.70
2023-05-04T23:17:46.086Z,18.70
2023-05-04T23:20:14.349Z,18.60
2023-05-04T23:22:43.840Z,18.50
2023-05-04T23:25:11.679Z,18.40
2023-05-04T23:27:39.848Z,18.30
2023-05-04T23:30:09.791Z,18.20
2023-05-04T23:32:37.994Z,18.20
2023-05-04T23:35:07.491Z,18.20
2023-05-04T23:37:35.308Z,18.10
2023-05-04T23:40:05.247Z,18.10
2023-05-04T23:42:33.153Z,18.00
2023-05-04T23:45:00.973Z,18.00
2023-05-04T23:47:28.774Z,18.00
2023-05-04T23:49:56.657Z,18.00
2023-05-04T23:52:24.498Z,18.00
2023-05-04T23:54:54.387Z,18.00
2023-05-04T23:57:23.511Z,18.00
2023-05-04T23:59:51.329Z,18.10
